Time;durP1;ratioP1;P1;durP2;ratioP2;P2;SDS_P1;SDS_P2;PMS_P1;PMS_P2;Temp;Humidity;BMP_temperature;BMP_pressure;BME280_temperature;BME280_humidity;BME280_pressure;Samples;Min_cycle;Max_cycle;Signal;HPM_P1;HPM_P2
2022/12/07 00:02:01;;;;;;;;;;;16.50;47.10;;;;;;5092456;28;20269;-68
2022/12/07 00:04:26;;;;;;;;;;;16.40;47.00;;;;;;5072494;28;19928;-70
2022/12/07 00:06:52;;;;;;;;;;;16.50;47.00;;;;;;5075879;28;19928;-69
2022/12/07 00:09:18;;;;;;;;;;;16.40;47.00;;;;;;5092258;28;19924;-68
2022/12/07 00:11:44;;;;;;;;;;;16.40;47.10;;;;;;5094074;28;20375;-69
2022/12/07 00:14:12;;;;;;;;;;;16.40;47.00;;;;;;5093309;28;19924;-68
2022/12/07 00:16:38;;;;;;;;;;;16.50;47.10;;;;;;5091882;28;19928;-68
2022/12/07 00:19:04;;;;;;;;;;;17.30;46.30;;;;;;5074361;28;20268;-68
2022/12/07 00:21:31;;;;;;;;;;;17.90;44.90;;;;;;5092375;28;19924;-68
2022/12/07 00:23:57;;;;;;;;;;;18.80;43.30;;;;;;5075759;28;20514;-68
2022/12/07 00:26:25;;;;;;;;;;;19.80;41.50;;;;;;5074124;28;19966;-68
2022/12/07 00:28:52;;;;;;;;;;;20.70;39.80;;;;;;5073673;28;20441;-68
2022/12/07 00:31:19;;;;;;;;;;;21.50;38.20;;;;;;5072457;28;19920;-68
2022/12/07 00:33:44;;;;;;;;;;;22.20;37.00;;;;;;5074086;28;19955;-69
2022/12/07 00:36:11;;;;;;;;;;;22.80;36.00;;;;;;5091236;28;19955;-69
2022/12/07 00:38:37;;;;;;;;;;;23.30;35.10;;;;;;5092694;28;19920;-70
2022/12/07 00:41:05;;;;;;;;;;;23.60;34.50;;;;;;5055971;28;19928;-69
2022/12/07 00:43:31;;;;;;;;;;;23.90;33.90;;;;;;5073449;28;19928;-68
2022/12/07 00:45:57;;;;;;;;;;;24.20;33.70;;;;;;5092679;28;20314;-69
2022/12/07 00:48:22;;;;;;;;;;;24.40;33.30;;;;;;5071502;28;19927;-69
2022/12/07 00:50:48;;;;;;;;;;;24.50;33.00;;;;;;5073736;28;19932;-68
2022/12/07 00:53:14;;;;;;;;;;;24.60;32.90;;;;;;5073735;28;20375;-69
2022/12/07 00:55:40;;;;;;;;;;;24.70;32.80;;;;;;5071624;28;20396;-68
2022/12/07 00:58:06;;;;;;;;;;;24.80;32.50;;;;;;5091811;28;19920;-68
2022/12/07 01:00:31;;;;;;;;;;;24.90;32.50;;;;;;5090191;28;19943;-67
2022/12/07 01:02:57;;;;;;;;;;;25.00;32.40;;;;;;5073319;28;19920;-67
2022/12/07 01:05:22;;;;;;;;;;;25.00;32.40;;;;;;5072046;28;20283;-66
2022/12/07 01:07:48;;;;;;;;;;;25.00;32.30;;;;;;5073961;28;20293;-68
2022/12/07 01:10:14;;;;;;;;;;;25.00;32.30;;;;;;5091156;28;20011;-68
2022/12/07 01:12:39;;;;;;;;;;;25.10;32.30;;;;;;5071339;28;19924;-67
2022/12/07 01:15:05;;;;;;;;;;;24.90;32.20;;;;;;5091110;28;19961;-67
2022/12/07 01:17:31;;;;;;;;;;;24.90;32.30;;;;;;5091371;28;19970;-67
2022/12/07 01:19:56;;;;;;;;;;;24.90;32.40;;;;;;5071215;28;20265;-67
2022/12/07 01:22:22;;;;;;;;;;;24.80;32.40;;;;;;5091169;28;19928;-67
2022/12/07 01:24:48;;;;;;;;;;;24.70;32.50;;;;;;5072993;28;19920;-68
2022/12/07 01:27:14;;;;;;;;;;;24.60;32.60;;;;;;5071288;28;19928;-69
2022/12/07 01:29:39;;;;;;;;;;;24.50;32.80;;;;;;5073639;28;19997;-68
2022/12/07 01:32:05;;;;;;;;;;;24.40;32.90;;;;;;5090544;28;19920;-67
2022/12/07 01:34:31;;;;;;;;;;;24.30;33.10;;;;;;5091372;28;19971;-68
2022/12/07 01:36:57;;;;;;;;;;;24.20;33.20;;;;;;5070870;28;19920;-69
2022/12/07 01:39:23;;;;;;;;;;;24.10;33.40;;;;;;5090685;28;19942;-67
2022/12/07 01:41:48;;;;;;;;;;;23.90;33.50;;;;;;5089681;28;19920;-68
2022/12/07 01:47:03;;;;;;;;;;;23.80;33.70;;;;;;5087075;28;19913;-67
2022/12/07 01:49:38;;;;;;;;;;;23.80;33.70;;;;;;5084966;28;20443;-67
2022/12/07 01:52:24;;;;;;;;;;;23.80;33.70;;;;;;5085392;28;19928;-66
2022/12/07 01:54:51;;;;;;;;;;;23.80;33.70;;;;;;5085057;28;20221;-66
2022/12/07 01:57:16;;;;;;;;;;;23.80;33.60;;;;;;5085076;28;19924;-66
2022/12/07 01:59:42;;;;;;;;;;;23.90;33.50;;;;;;5085514;28;19927;-66
2022/12/07 02:02:11;;;;;;;;;;;23.90;33.50;;;;;;5084998;28;19926;-67
2022/12/07 02:04:37;;;;;;;;;;;24.00;33.40;;;;;;5084979;28;19927;-66
2022/12/07 02:07:04;;;;;;;;;;;24.10;33.30;;;;;;5085921;28;19921;-66
2022/12/07 02:09:29;;;;;;;;;;;24.10;33.20;;;;;;5086430;28;19921;-68
2022/12/07 02:11:55;;;;;;;;;;;24.20;33.10;;;;;;5085111;28;20285;-66
2022/12/07 02:14:21;;;;;;;;;;;24.20;33.00;;;;;;5085955;28;19928;-67
2022/12/07 02:16:51;;;;;;;;;;;24.30;33.00;;;;;;5099644;28;20003;-67
2022/12/07 02:25:08;;;;;;;;;;;24.20;32.80;;;;;;5107556;27;20359;-68
2022/12/07 02:27:54;;;;;;;;;;;24.30;32.90;;;;;;5088840;28;19961;-67
2022/12/07 02:30:20;;;;;;;;;;;24.10;33.00;;;;;;5087843;28;19939;-67
2022/12/07 02:38:26;;;;;;;;;;;23.90;33.20;;;;;;5105459;27;1863021;-67
2022/12/07 02:40:54;;;;;;;;;;;23.90;33.30;;;;;;5151242;27;20179;-67
2022/12/07 02:43:23;;;;;;;;;;;23.80;33.40;;;;;;5168694;27;19915;-67
2022/12/07 02:45:50;;;;;;;;;;;23.80;33.40;;;;;;5169321;27;20264;-67
2022/12/07 02:48:17;;;;;;;;;;;23.80;33.50;;;;;;5150743;27;19927;-67
2022/12/07 02:50:48;;;;;;;;;;;23.70;33.50;;;;;;5157136;27;19915;-67
2022/12/07 02:53:34;;;;;;;;;;;23.70;33.40;;;;;;5157249;27;20317;-67
2022/12/07 02:56:07;;;;;;;;;;;23.70;33.40;;;;;;5167795;27;20302;-67
2022/12/07 02:58:52;;;;;;;;;;;23.70;33.40;;;;;;5157103;27;20290;-68
2022/12/07 03:01:28;;;;;;;;;;;23.80;33.50;;;;;;5157168;27;19995;-68
2022/12/07 03:04:02;;;;;;;;;;;23.70;33.40;;;;;;5156869;27;19915;-68
2022/12/07 03:06:30;;;;;;;;;;;23.70;33.40;;;;;;5158333;27;19919;-67
2022/12/07 03:09:01;;;;;;;;;;;23.70;33.40;;;;;;5167675;27;19977;-67
2022/12/07 03:11:31;;;;;;;;;;;23.80;33.40;;;;;;5167790;27;19985;-67
2022/12/07 03:16:40;;;;;;;;;;;23.90;33.20;;;;;;5068275;28;20292;-67
2022/12/07 03:19:08;;;;;;;;;;;24.00;33.00;;;;;;5082572;28;20291;-67
2022/12/07 03:21:37;;;;;;;;;;;24.10;33.00;;;;;;5064978;28;19951;-67
2022/12/07 03:24:04;;;;;;;;;;;24.10;32.90;;;;;;5063782;28;19928;-67
2022/12/07 03:26:32;;;;;;;;;;;24.10;32.80;;;;;;5065337;28;19928;-67
2022/12/07 03:28:59;;;;;;;;;;;24.10;32.80;;;;;;5065178;28;19924;-67
2022/12/07 03:31:28;;;;;;;;;;;24.20;32.70;;;;;;5065196;28;20419;-67
2022/12/07 03:33:58;;;;;;;;;;;24.10;32.70;;;;;;5065137;28;19921;-67
2022/12/07 03:36:34;;;;;;;;;;;24.10;32.70;;;;;;5064199;28;19925;-67
2022/12/07 03:41:39;;;;;;;;;;;24.10;32.80;;;;;;5087137;28;19932;-68
2022/12/07 03:44:05;;;;;;;;;;;24.00;32.80;;;;;;5087069;28;20535;-67
2022/12/07 03:46:51;;;;;;;;;;;24.00;32.90;;;;;;5085771;28;19924;-67
2022/12/07 03:49:36;;;;;;;;;;;23.90;33.00;;;;;;5085131;28;20380;-66
2022/12/07 03:54:55;;;;;;;;;;;23.80;33.20;;;;;;5107387;27;19916;-67
2022/12/07 03:57:22;;;;;;;;;;;23.70;33.20;;;;;;5105963;28;20458;-67
2022/12/07 03:59:48;;;;;;;;;;;23.70;33.30;;;;;;5107549;28;20325;-68
2022/12/07 04:02:14;;;;;;;;;;;23.70;33.40;;;;;;5106967;28;19920;-68
2022/12/07 04:04:40;;;;;;;;;;;23.60;33.40;;;;;;5105926;28;19920;-68
2022/12/07 04:07:06;;;;;;;;;;;23.50;33.30;;;;;;5106406;28;19934;-67
2022/12/07 04:09:32;;;;;;;;;;;23.60;34.20;;;;;;5106098;28;20291;-67
2022/12/07 04:11:57;;;;;;;;;;;23.40;33.30;;;;;;5105951;28;20386;-68
2022/12/07 04:14:23;;;;;;;;;;;23.50;33.40;;;;;;5106853;28;20593;-69
2022/12/07 04:16:50;;;;;;;;;;;23.60;33.40;;;;;;5089313;28;19928;-69
2022/12/07 04:19:16;;;;;;;;;;;23.60;33.40;;;;;;5105465;28;19959;-67
2022/12/07 04:21:42;;;;;;;;;;;23.60;33.30;;;;;;5105720;28;19967;-67
2022/12/07 04:24:07;;;;;;;;;;;23.60;33.20;;;;;;5105867;28;20328;-67
2022/12/07 04:26:33;;;;;;;;;;;23.70;33.20;;;;;;5106514;28;19920;-67
2022/12/07 04:28:58;;;;;;;;;;;23.70;33.20;;;;;;5105984;28;19920;-67
2022/12/07 04:31:24;;;;;;;;;;;23.70;33.10;;;;;;5105147;28;19920;-67
2022/12/07 04:33:50;;;;;;;;;;;23.70;33.00;;;;;;5105535;28;19931;-67
2022/12/07 04:36:15;;;;;;;;;;;23.70;33.00;;;;;;5105328;28;20356;-67
2022/12/07 04:38:41;;;;;;;;;;;23.80;33.00;;;;;;5105247;28;19923;-67
2022/12/07 04:41:07;;;;;;;;;;;23.80;32.90;;;;;;5105817;28;19919;-67
2022/12/07 04:43:32;;;;;;;;;;;23.80;32.90;;;;;;5106311;28;19926;-67
2022/12/07 04:45:58;;;;;;;;;;;23.80;32.90;;;;;;5105070;28;20340;-67
2022/12/07 04:48:24;;;;;;;;;;;23.80;32.90;;;;;;5106938;28;19920;-67
2022/12/07 04:50:49;;;;;;;;;;;23.80;32.90;;;;;;5105927;28;19932;-67
2022/12/07 04:53:15;;;;;;;;;;;23.80;32.80;;;;;;5113771;28;20011;-67
2022/12/07 04:55:40;;;;;;;;;;;23.80;32.80;;;;;;5108356;28;19919;-67
2022/12/07 04:58:06;;;;;;;;;;;23.80;32.90;;;;;;5126025;28;19958;-67
2022/12/07 05:00:32;;;;;;;;;;;23.70;32.90;;;;;;5108053;28;19920;-68
2022/12/07 05:02:57;;;;;;;;;;;23.70;32.90;;;;;;5108132;28;19920;-67
2022/12/07 05:05:24;;;;;;;;;;;23.70;32.90;;;;;;5116469;28;19920;-68
2022/12/07 05:07:52;;;;;;;;;;;23.70;32.90;;;;;;5112980;28;20011;-67
2022/12/07 05:10:18;;;;;;;;;;;23.70;32.90;;;;;;5112302;28;19920;-67
2022/12/07 05:12:43;;;;;;;;;;;23.70;33.00;;;;;;5094304;28;20280;-67
2022/12/07 05:15:09;;;;;;;;;;;23.80;32.90;;;;;;5112569;28;19931;-68
2022/12/07 05:17:35;;;;;;;;;;;23.80;32.90;;;;;;5094504;28;20518;-69
2022/12/07 05:20:00;;;;;;;;;;;23.80;32.90;;;;;;5094451;28;19994;-69
2022/12/07 05:22:27;;;;;;;;;;;23.80;32.80;;;;;;5093068;28;20014;-69
2022/12/07 05:24:54;;;;;;;;;;;23.90;32.80;;;;;;5111716;28;20375;-69
2022/12/07 05:27:19;;;;;;;;;;;23.90;32.70;;;;;;5111855;28;19926;-69
2022/12/07 05:29:45;;;;;;;;;;;23.90;32.70;;;;;;5110557;28;21487;-69
2022/12/07 05:32:10;;;;;;;;;;;24.00;32.60;;;;;;5093354;28;19946;-67
2022/12/07 05:34:36;;;;;;;;;;;24.00;32.60;;;;;;5112436;28;19923;-67
2022/12/07 05:37:02;;;;;;;;;;;24.00;32.60;;;;;;5094453;28;19972;-68
2022/12/07 05:39:27;;;;;;;;;;;23.90;32.50;;;;;;5111443;28;19924;-68
2022/12/07 05:42:24;;;;;;;;;;;23.90;32.50;;;;;;5093399;28;19920;-68
2022/12/07 05:44:39;;;;;;;;;;;23.90;32.60;;;;;;5092740;28;20018;-68
2022/12/07 05:47:04;;;;;;;;;;;23.80;32.60;;;;;;5111955;28;20383;-68
2022/12/07 05:49:30;;;;;;;;;;;23.80;32.70;;;;;;5093191;28;20026;-68
2022/12/07 05:51:56;;;;;;;;;;;23.70;32.80;;;;;;5111151;28;20016;-68
2022/12/07 05:54:21;;;;;;;;;;;23.60;32.90;;;;;;5110655;28;20295;-68
2022/12/07 05:56:47;;;;;;;;;;;23.60;33.00;;;;;;5093920;28;20386;-68
2022/12/07 05:59:28;;;;;;;;;;;23.50;33.00;;;;;;5093673;28;19930;-68
2022/12/07 06:01:56;;;;;;;;;;;23.50;33.20;;;;;;5111424;28;19930;-68
2022/12/07 06:04:23;;;;;;;;;;;23.40;33.20;;;;;;5111321;28;19928;-68
2022/12/07 06:06:48;;;;;;;;;;;23.40;33.30;;;;;;5093236;28;19919;-68
2022/12/07 06:09:15;;;;;;;;;;;23.30;33.30;;;;;;5093293;28;19934;-68
2022/12/07 06:14:26;;;;;;;;;;;23.30;33.30;;;;;;5111233;28;20275;-68
2022/12/07 06:16:52;;;;;;;;;;;23.20;33.40;;;;;;5092871;28;19926;-68
2022/12/07 06:19:17;;;;;;;;;;;23.20;33.40;;;;;;5111257;28;20371;-68
2022/12/07 06:21:43;;;;;;;;;;;23.20;33.40;;;;;;5093334;28;19920;-68
2022/12/07 06:24:12;;;;;;;;;;;23.20;33.40;;;;;;5093212;28;20006;-69
2022/12/07 06:26:37;;;;;;;;;;;23.20;33.40;;;;;;5093404;28;20010;-68
2022/12/07 06:29:03;;;;;;;;;;;23.20;33.50;;;;;;5092828;28;20374;-68
2022/12/07 06:31:29;;;;;;;;;;;23.20;33.40;;;;;;5092335;28;19920;-68
2022/12/07 06:34:02;;;;;;;;;;;23.20;33.40;;;;;;5111117;28;19955;-70
2022/12/07 06:36:28;;;;;;;;;;;23.20;33.70;;;;;;5092561;28;20015;-69
2022/12/07 06:38:53;;;;;;;;;;;23.10;34.20;;;;;;5092605;28;20022;-69
2022/12/07 06:41:19;;;;;;;;;;;23.00;34.50;;;;;;5091973;28;19969;-67
2022/12/07 06:43:44;;;;;;;;;;;22.90;34.80;;;;;;5109434;28;19927;-62
2022/12/07 06:46:10;;;;;;;;;;;22.90;35.00;;;;;;5090020;28;19955;-70
2022/12/07 06:48:35;;;;;;;;;;;23.10;34.90;;;;;;5108992;28;19919;-67
2022/12/07 06:51:01;;;;;;;;;;;23.20;34.60;;;;;;5107128;28;20333;-66
2022/12/07 06:53:26;;;;;;;;;;;23.50;34.30;;;;;;5086058;28;19938;-65
2022/12/07 06:55:52;;;;;;;;;;;23.80;34.00;;;;;;5082516;28;19942;-63
2022/12/07 06:58:18;;;;;;;;;;;24.00;33.60;;;;;;5084866;28;19920;-68
2022/12/07 07:00:45;;;;;;;;;;;24.30;33.30;;;;;;5085043;28;19935;-63
2022/12/07 07:03:10;;;;;;;;;;;24.50;33.70;;;;;;5085397;28;19971;-67
2022/12/07 07:05:36;;;;;;;;;;;24.60;32.70;;;;;;5085241;28;19971;-63
2022/12/07 07:08:02;;;;;;;;;;;24.70;32.50;;;;;;5084994;28;19982;-68
2022/12/07 07:10:28;;;;;;;;;;;24.90;32.30;;;;;;5082674;28;19924;-63
2022/12/07 07:12:53;;;;;;;;;;;25.00;32.00;;;;;;5072302;28;20414;-63
2022/12/07 07:15:19;;;;;;;;;;;25.00;31.50;;;;;;5078455;28;19969;-71
2022/12/07 07:17:44;;;;;;;;;;;25.00;31.20;;;;;;5080947;28;19924;-71
2022/12/07 07:20:10;;;;;;;;;;;25.00;31.00;;;;;;5064103;28;20046;-71
2022/12/07 07:22:36;;;;;;;;;;;25.00;30.90;;;;;;5104118;27;19924;-63
2022/12/07 07:25:02;;;;;;;;;;;25.10;30.80;;;;;;5075545;28;19928;-72
2022/12/07 07:27:27;;;;;;;;;;;25.00;30.90;;;;;;5078129;28;19924;-70
2022/12/07 07:29:53;;;;;;;;;;;24.90;31.30;;;;;;5077603;28;19921;-72
2022/12/07 07:32:19;;;;;;;;;;;24.80;31.60;;;;;;5072236;28;19935;-72
2022/12/07 07:34:45;;;;;;;;;;;24.60;31.60;;;;;;5075531;28;20041;-71
2022/12/07 07:37:12;;;;;;;;;;;24.50;31.70;;;;;;5076521;28;19939;-70
2022/12/07 07:39:38;;;;;;;;;;;24.30;31.90;;;;;;5075124;28;19935;-70
2022/12/07 07:42:04;;;;;;;;;;;24.30;32.20;;;;;;5075747;28;19924;-65
2022/12/07 07:44:29;;;;;;;;;;;24.40;32.20;;;;;;5076372;28;19920;-69
2022/12/07 07:46:55;;;;;;;;;;;24.40;32.10;;;;;;5078454;28;19943;-73
2022/12/07 07:49:20;;;;;;;;;;;24.40;32.20;;;;;;5075601;28;19970;-71
2022/12/07 07:51:46;;;;;;;;;;;24.50;32.30;;;;;;5074918;28;20474;-71
2022/12/07 07:54:11;;;;;;;;;;;24.70;31.90;;;;;;5106848;28;20960;-69
2022/12/07 07:56:37;;;;;;;;;;;24.90;31.90;;;;;;5076703;28;20387;-71
2022/12/07 07:59:02;;;;;;;;;;;25.00;31.70;;;;;;5078887;28;20423;-72
2022/12/07 08:01:28;;;;;;;;;;;25.30;31.50;;;;;;5075006;28;19928;-71
2022/12/07 08:03:53;;;;;;;;;;;25.40;31.20;;;;;;5105521;28;19963;-67
2022/12/07 08:06:19;;;;;;;;;;;25.40;31.20;;;;;;5080978;28;19931;-70
2022/12/07 08:08:44;;;;;;;;;;;25.30;31.30;;;;;;5072580;28;19927;-71
2022/12/07 08:11:10;;;;;;;;;;;25.10;32.20;;;;;;5075269;28;19932;-70
2022/12/07 08:13:36;;;;;;;;;;;24.90;31.70;;;;;;5072468;28;19927;-72
2022/12/07 08:16:09;;;;;;;;;;;24.70;32.00;;;;;;5071789;28;19924;-67
2022/12/07 08:18:36;;;;;;;;;;;24.40;32.30;;;;;;5074580;28;19939;-68
2022/12/07 08:21:02;;;;;;;;;;;24.10;32.70;;;;;;5070902;28;20462;-68
2022/12/07 08:23:28;;;;;;;;;;;23.90;33.20;;;;;;5073578;28;21116;-69
2022/12/07 08:25:53;;;;;;;;;;;23.60;33.50;;;;;;5102263;28;19920;-68
2022/12/07 08:28:19;;;;;;;;;;;23.40;34.00;;;;;;5075833;28;19928;-70
2022/12/07 08:30:45;;;;;;;;;;;22.90;34.40;;;;;;5072105;28;20391;-70
2022/12/07 08:33:10;;;;;;;;;;;22.60;35.00;;;;;;5072630;28;20432;-72
2022/12/07 08:35:36;;;;;;;;;;;22.40;35.40;;;;;;5076420;28;19924;-68
2022/12/07 08:38:02;;;;;;;;;;;22.40;35.90;;;;;;5075363;28;20014;-68
2022/12/07 08:40:27;;;;;;;;;;;22.40;35.90;;;;;;5075491;28;20020;-70
2022/12/07 08:42:53;;;;;;;;;;;22.60;35.80;;;;;;5078545;28;19934;-69
2022/12/07 08:45:19;;;;;;;;;;;22.80;35.60;;;;;;5079216;28;19928;-69
2022/12/07 08:47:49;;;;;;;;;;;22.80;35.40;;;;;;5079976;28;20038;-71
2022/12/07 08:50:16;;;;;;;;;;;23.10;35.40;;;;;;5077300;28;19931;-69
2022/12/07 08:52:42;;;;;;;;;;;23.20;35.00;;;;;;5079075;28;20345;-71
2022/12/07 08:55:09;;;;;;;;;;;23.50;34.80;;;;;;5076253;28;19929;-70
2022/12/07 08:57:35;;;;;;;;;;;23.70;34.60;;;;;;5094616;28;19969;-71
2022/12/07 09:00:00;;;;;;;;;;;23.90;34.40;;;;;;5073139;28;19924;-70
2022/12/07 09:02:26;;;;;;;;;;;24.00;34.10;;;;;;5076688;28;19920;-72
2022/12/07 09:04:52;;;;;;;;;;;24.10;34.00;;;;;;5080351;28;19978;-72
2022/12/07 09:07:17;;;;;;;;;;;24.10;33.90;;;;;;5109195;27;20764;-70
2022/12/07 09:09:43;;;;;;;;;;;24.20;33.80;;;;;;5078834;28;19934;-73
2022/12/07 09:12:10;;;;;;;;;;;24.10;34.00;;;;;;5108082;27;20292;-70
2022/12/07 09:14:35;;;;;;;;;;;24.00;34.20;;;;;;5080834;28;19940;-72
2022/12/07 09:17:09;;;;;;;;;;;23.90;34.30;;;;;;5079666;28;19928;-68
2022/12/07 09:19:35;;;;;;;;;;;23.80;34.50;;;;;;5108844;27;20014;-69
2022/12/07 09:22:00;;;;;;;;;;;23.50;34.70;;;;;;5072511;28;20439;-71
2022/12/07 09:24:26;;;;;;;;;;;23.20;35.50;;;;;;5105392;27;21328;-72
2022/12/07 09:26:51;;;;;;;;;;;23.00;35.80;;;;;;5077079;28;20027;-72
2022/12/07 09:29:17;;;;;;;;;;;22.90;36.00;;;;;;5080100;28;19967;-72
2022/12/07 09:31:42;;;;;;;;;;;22.90;36.10;;;;;;5077776;28;19924;-71
2022/12/07 09:34:08;;;;;;;;;;;22.90;36.10;;;;;;5069625;28;20565;-73
2022/12/07 09:36:33;;;;;;;;;;;22.90;36.10;;;;;;5071437;28;19928;-69
2022/12/07 09:38:59;;;;;;;;;;;22.90;36.10;;;;;;5076555;28;20401;-70
2022/12/07 09:41:26;;;;;;;;;;;22.90;36.00;;;;;;5074143;28;20490;-70
2022/12/07 09:43:52;;;;;;;;;;;22.90;36.20;;;;;;5077904;28;19938;-72
2022/12/07 09:46:19;;;;;;;;;;;22.80;36.40;;;;;;5074645;28;19970;-73
2022/12/07 09:48:48;;;;;;;;;;;22.80;36.50;;;;;;5072932;28;19936;-77
2022/12/07 09:53:53;;;;;;;;;;;22.90;36.50;;;;;;5064362;27;2931961;-71
2022/12/07 09:56:19;;;;;;;;;;;23.10;36.40;;;;;;5137034;27;19919;-70
2022/12/07 09:58:45;;;;;;;;;;;23.20;36.40;;;;;;5129955;27;20029;-65
2022/12/07 10:01:13;;;;;;;;;;;23.40;36.40;;;;;;5132476;27;19929;-70
2022/12/07 10:03:39;;;;;;;;;;;23.40;36.50;;;;;;5132673;27;19925;-68
2022/12/07 10:06:06;;;;;;;;;;;23.40;36.50;;;;;;5132432;27;20384;-67
2022/12/07 10:08:31;;;;;;;;;;;23.30;36.40;;;;;;5126879;27;19927;-68
2022/12/07 10:10:58;;;;;;;;;;;23.30;36.50;;;;;;5128777;27;20430;-67
2022/12/07 10:16:39;;;;;;;;;;;23.60;36.20;;;;;;5082462;27;19932;-63
2022/12/07 10:19:23;;;;;;;;;;;23.90;35.70;;;;;;5074122;28;19950;-66
2022/12/07 10:22:05;;;;;;;;;;;24.00;35.60;;;;;;5078163;28;19920;-64
2022/12/07 10:24:31;;;;;;;;;;;24.10;35.70;;;;;;5110790;27;20256;-69
2022/12/07 10:26:56;;;;;;;;;;;24.20;35.40;;;;;;5080301;28;19928;-70
2022/12/07 10:29:23;;;;;;;;;;;24.20;35.10;;;;;;5075722;28;19932;-65
2022/12/07 10:31:55;;;;;;;;;;;24.00;35.30;;;;;;5098740;27;19928;-69
2022/12/07 10:34:24;;;;;;;;;;;23.90;35.50;;;;;;5072045;28;20315;-65
2022/12/07 10:36:50;;;;;;;;;;;23.80;35.60;;;;;;5073857;28;20338;-70
2022/12/07 10:41:58;;;;;;;;;;;23.50;35.90;;;;;;5074093;27;19920;-70
2022/12/07 10:44:26;;;;;;;;;;;23.30;35.80;;;;;;5055382;28;20422;-69
2022/12/07 10:50:02;;;;;;;;;;;23.40;36.00;;;;;;5072954;27;19920;-71
2022/12/07 10:52:36;;;;;;;;;;;23.50;35.80;;;;;;5100221;28;19928;-69
2022/12/07 10:55:08;;;;;;;;;;;23.90;35.30;;;;;;5067657;28;19924;-65
2022/12/07 10:57:54;;;;;;;;;;;24.00;35.10;;;;;;5067580;28;20019;-68
2022/12/07 11:00:22;;;;;;;;;;;24.10;34.90;;;;;;5067280;28;20026;-69
2022/12/07 11:03:07;;;;;;;;;;;24.10;34.80;;;;;;5102607;28;20023;-69
2022/12/07 11:05:39;;;;;;;;;;;24.10;34.80;;;;;;5073217;28;19956;-66
2022/12/07 11:08:12;;;;;;;;;;;24.20;34.80;;;;;;5070618;28;19931;-65
2022/12/07 11:10:49;;;;;;;;;;;24.10;34.80;;;;;;5071862;28;20342;-69
2022/12/07 11:16:01;;;;;;;;;;;24.20;34.70;;;;;;5092664;27;1860789;-72
2022/12/07 11:18:32;;;;;;;;;;;24.30;34.60;;;;;;5139606;27;20677;-72
2022/12/07 11:23:48;;;;;;;;;;;24.30;34.40;;;;;;5073705;27;19920;-69
2022/12/07 11:29:29;;;;;;;;;;;24.10;34.60;;;;;;5064844;28;19921;-71
2022/12/07 11:32:14;;;;;;;;;;;24.00;34.80;;;;;;5076622;28;20015;-68
2022/12/07 11:35:00;;;;;;;;;;;23.80;35.00;;;;;;5060232;28;20337;-70
2022/12/07 11:37:32;;;;;;;;;;;23.60;35.30;;;;;;5070817;28;19974;-70
2022/12/07 11:40:03;;;;;;;;;;;23.40;35.60;;;;;;5076033;28;19924;-70
2022/12/07 11:42:33;;;;;;;;;;;23.20;35.90;;;;;;5070410;28;19920;-69
2022/12/07 11:45:03;;;;;;;;;;;23.00;36.10;;;;;;5072108;28;19999;-69
2022/12/07 11:47:48;;;;;;;;;;;22.90;36.20;;;;;;5075289;28;19924;-68
2022/12/07 11:50:21;;;;;;;;;;;22.90;36.40;;;;;;5075462;28;20295;-69
2022/12/07 11:55:50;;;;;;;;;;;22.80;36.30;;;;;;5078185;28;19920;-69
2022/12/07 11:58:22;;;;;;;;;;;22.90;36.20;;;;;;5080823;28;19927;-68
2022/12/07 12:00:49;;;;;;;;;;;23.00;36.20;;;;;;5079656;28;20429;-69
2022/12/07 12:03:20;;;;;;;;;;;23.10;36.00;;;;;;5080684;28;19947;-69
2022/12/07 12:05:46;;;;;;;;;;;23.10;35.80;;;;;;5069741;28;20598;-69
2022/12/07 12:16:26;;;;;;;;;;;23.40;35.30;;;;;;5082340;28;19916;-69
2022/12/07 12:21:32;;;;;;;;;;;23.50;35.00;;;;;;5080734;28;20863;-69
2022/12/07 12:26:47;;;;;;;;;;;24.70;35.40;;;;;;5101700;27;19920;-69
2022/12/07 12:29:32;;;;;;;;;;;23.60;34.70;;;;;;5101997;28;19920;-69
2022/12/07 12:32:14;;;;;;;;;;;23.70;34.70;;;;;;5101649;28;20010;-70
2022/12/07 12:37:41;;;;;;;;;;;23.60;34.60;;;;;;5097021;27;1886688;-69
2022/12/07 12:42:55;;;;;;;;;;;23.50;34.60;;;;;;5090516;27;1867456;-69
2022/12/07 12:45:22;;;;;;;;;;;23.50;34.70;;;;;;5131151;27;20295;-69
2022/12/07 12:48:07;;;;;;;;;;;23.50;34.70;;;;;;5138316;27;19976;-69
2022/12/07 12:50:35;;;;;;;;;;;23.50;34.80;;;;;;5127353;27;19930;-69
2022/12/07 12:58:28;;;;;;;;;;;23.40;34.80;;;;;;5102526;27;19916;-69
2022/12/07 13:01:13;;;;;;;;;;;23.30;34.80;;;;;;5102365;28;19924;-69
2022/12/07 13:03:51;;;;;;;;;;;23.30;34.90;;;;;;5100518;28;19981;-69
2022/12/07 13:06:33;;;;;;;;;;;23.30;34.90;;;;;;5104092;28;20295;-69
2022/12/07 13:08:59;;;;;;;;;;;23.20;34.90;;;;;;5104054;28;19924;-69
2022/12/07 13:11:29;;;;;;;;;;;23.20;35.00;;;;;;5100933;28;19924;-69
2022/12/07 13:14:14;;;;;;;;;;;23.10;35.00;;;;;;5135277;27;19924;-69
2022/12/07 13:16:41;;;;;;;;;;;23.10;35.00;;;;;;5101977;28;19931;-70
2022/12/07 13:19:26;;;;;;;;;;;23.00;35.10;;;;;;5105998;28;19920;-69
2022/12/07 13:21:52;;;;;;;;;;;22.90;35.20;;;;;;5103336;28;19924;-69
2022/12/07 13:24:18;;;;;;;;;;;22.80;35.30;;;;;;5103305;28;19943;-70
2022/12/07 13:26:44;;;;;;;;;;;22.80;35.60;;;;;;5104240;28;19927;-69
2022/12/07 13:29:15;;;;;;;;;;;22.60;35.60;;;;;;5104764;28;19933;-69
2022/12/07 13:31:56;;;;;;;;;;;22.60;36.50;;;;;;5103757;28;20276;-69
2022/12/07 13:34:38;;;;;;;;;;;22.40;35.80;;;;;;5103760;28;19920;-70
2022/12/07 13:39:47;;;;;;;;;;;22.30;36.10;;;;;;5106571;27;19916;-69
2022/12/07 13:42:19;;;;;;;;;;;22.20;36.20;;;;;;5104923;28;19973;-69
2022/12/07 13:44:45;;;;;;;;;;;22.00;36.40;;;;;;5105056;28;20015;-70
2022/12/07 13:47:17;;;;;;;;;;;22.00;36.60;;;;;;5104554;28;20027;-70
2022/12/07 13:49:47;;;;;;;;;;;21.80;36.80;;;;;;5104321;28;19926;-69
2022/12/07 13:52:16;;;;;;;;;;;21.70;37.00;;;;;;5102067;28;20371;-69
2022/12/07 13:54:49;;;;;;;;;;;21.60;37.20;;;;;;5087961;28;19924;-70
2022/12/07 13:57:17;;;;;;;;;;;21.50;37.40;;;;;;5104612;28;19967;-70
2022/12/07 13:59:42;;;;;;;;;;;21.40;37.40;;;;;;5105204;28;19924;-70
2022/12/07 14:02:28;;;;;;;;;;;21.40;37.50;;;;;;5105202;28;19927;-69
2022/12/07 14:05:07;;;;;;;;;;;21.40;37.60;;;;;;5105021;28;19919;-68
2022/12/07 14:07:33;;;;;;;;;;;21.30;37.60;;;;;;5105602;28;19927;-70
2022/12/07 14:10:00;;;;;;;;;;;21.30;37.70;;;;;;5105901;28;19927;-69
2022/12/07 14:12:26;;;;;;;;;;;21.20;37.60;;;;;;5104123;28;19923;-69
2022/12/07 14:14:52;;;;;;;;;;;21.20;37.60;;;;;;5103969;28;19920;-70
2022/12/07 14:17:19;;;;;;;;;;;21.20;37.70;;;;;;5105352;28;20416;-70
2022/12/07 14:27:50;;;;;;;;;;;21.00;38.60;;;;;;5085664;28;19929;-70
2022/12/07 14:30:16;;;;;;;;;;;21.00;37.90;;;;;;5084593;28;19990;-69
2022/12/07 14:32:42;;;;;;;;;;;21.00;38.00;;;;;;5084865;28;19947;-69
2022/12/07 14:35:10;;;;;;;;;;;20.90;38.10;;;;;;5083854;28;20040;-69
2022/12/07 14:37:37;;;;;;;;;;;20.80;38.10;;;;;;5084246;28;20051;-69
2022/12/07 14:40:02;;;;;;;;;;;20.80;38.30;;;;;;5085181;28;19920;-69
2022/12/07 14:42:29;;;;;;;;;;;20.70;38.40;;;;;;5086693;28;20352;-70
2022/12/07 14:44:56;;;;;;;;;;;20.60;38.50;;;;;;5084413;28;19974;-69
2022/12/07 14:47:21;;;;;;;;;;;20.50;38.50;;;;;;5084240;28;20337;-70
2022/12/07 14:49:47;;;;;;;;;;;20.50;38.70;;;;;;5084865;28;19928;-69
2022/12/07 14:52:16;;;;;;;;;;;20.40;38.80;;;;;;5084028;28;19960;-69
2022/12/07 14:54:42;;;;;;;;;;;20.40;38.90;;;;;;5099829;28;20351;-69
2022/12/07 14:57:09;;;;;;;;;;;20.30;39.00;;;;;;5081215;28;19927;-69
2022/12/07 14:59:34;;;;;;;;;;;20.30;39.10;;;;;;5083381;28;19959;-69
2022/12/07 15:02:00;;;;;;;;;;;20.30;39.10;;;;;;5084575;28;20403;-70
2022/12/07 15:04:25;;;;;;;;;;;20.20;39.10;;;;;;5084785;28;19921;-69
2022/12/07 15:06:59;;;;;;;;;;;20.20;39.20;;;;;;5084543;28;19927;-69
2022/12/07 15:09:24;;;;;;;;;;;20.10;39.20;;;;;;5085092;28;19924;-69
2022/12/07 15:11:50;;;;;;;;;;;20.10;39.30;;;;;;5085854;28;20427;-69
2022/12/07 15:14:15;;;;;;;;;;;20.00;39.30;;;;;;5084375;28;19970;-70
2022/12/07 15:16:42;;;;;;;;;;;20.00;39.40;;;;;;5084898;28;20328;-70
2022/12/07 15:19:11;;;;;;;;;;;19.90;39.40;;;;;;5084981;28;19924;-69
2022/12/07 15:21:37;;;;;;;;;;;19.90;39.50;;;;;;5085160;28;19921;-70
2022/12/07 15:24:02;;;;;;;;;;;19.80;39.50;;;;;;5085463;28;20398;-69
2022/12/07 15:26:28;;;;;;;;;;;19.80;39.70;;;;;;5085492;28;19931;-70
2022/12/07 15:28:54;;;;;;;;;;;19.80;39.80;;;;;;5086026;28;20383;-69
2022/12/07 15:31:19;;;;;;;;;;;19.60;39.80;;;;;;5083960;28;20007;-70
2022/12/07 15:33:45;;;;;;;;;;;19.60;39.90;;;;;;5085153;28;19969;-69
2022/12/07 15:36:18;;;;;;;;;;;19.50;40.00;;;;;;5084224;28;20027;-69
2022/12/07 15:38:44;;;;;;;;;;;19.40;40.00;;;;;;5072721;28;19928;-70
2022/12/07 15:41:09;;;;;;;;;;;19.40;40.20;;;;;;5070690;28;20324;-70
2022/12/07 15:46:21;;;;;;;;;;;19.20;40.50;;;;;;5070373;28;19931;-69
2022/12/07 15:48:46;;;;;;;;;;;19.10;40.70;;;;;;5071676;28;19924;-69